Carland, Michigan
Current Conditions -  °F | °C
As of 5:34 PM on Friday 28 Nov 2014 (Local Time) from KRNP Reporting Station
Overcast Overcast  
Wind Chill: 17°   Ceiling: 7500
Heat Index: 25°   Visibility: 10mi
Dew Point: 21°   Wind: 7mph
Humidity: 86%   Direction: 140°SE
Pressure: 30.12"   Gusts: NA
Location:  43.0981°N, 84.3788°W
Report Text: KRNP 282234Z AUTO 14006KT 10SM SCT039 OVC075 M04/M06 A3012 RMK AO2 T10411062
Loading
Personal Weather Stations






























Interactive Weather Map New forecast layout! Learn more

10-Day Weather Forecast

Advertisements
Track Severe Weather on mobile